createdAt,value
2018-12-29T00:03:24.507Z,48.37
2018-12-29T00:08:30.826Z,47.50
2018-12-29T00:13:37.495Z,48.33
2018-12-29T00:18:43.951Z,48.97
2018-12-29T00:23:49.769Z,49.37
2018-12-29T00:28:55.105Z,47.23
2018-12-29T00:34:01.270Z,48.00
2018-12-29T00:39:09.057Z,49.43
2018-12-29T00:44:15.430Z,47.17
2018-12-29T00:49:21.866Z,53.00
2018-12-29T00:54:27.360Z,47.90
2018-12-29T00:59:33.529Z,54.57
2018-12-29T01:04:39.360Z,52.03
2018-12-29T01:09:45.623Z,52.33
2018-12-29T01:14:51.418Z,51.23
2018-12-29T01:19:59.522Z,52.07
2018-12-29T01:25:05.103Z,51.73
2018-12-29T01:30:10.585Z,52.13
2018-12-29T01:35:16.533Z,58.37
2018-12-29T01:40:22.893Z,57.53
2018-12-29T01:45:29.272Z,49.73
2018-12-29T01:50:34.856Z,50.43
2018-12-29T01:55:41.363Z,52.53
2018-12-29T02:00:47.819Z,51.97
2018-12-29T02:05:54.024Z,50.77
2018-12-29T02:11:00.397Z,53.90
2018-12-29T02:16:06.493Z,52.40
2018-12-29T02:21:12.274Z,52.90
2018-12-29T02:26:17.835Z,58.20
2018-12-29T02:31:24.226Z,54.50
2018-12-29T02:36:29.896Z,55.87
2018-12-29T02:41:35.471Z,54.47
2018-12-29T02:46:41.062Z,52.13
2018-12-29T02:51:46.498Z,52.53
2018-12-29T02:56:51.676Z,56.23
2018-12-29T03:02:00.314Z,53.10
2018-12-29T03:07:06.622Z,52.07
2018-12-29T03:12:13.346Z,53.37
2018-12-29T03:17:19.120Z,53.27
2018-12-29T03:22:25.953Z,53.60
2018-12-29T03:27:31.221Z,49.93
2018-12-29T03:32:38.954Z,47.97
2018-12-29T03:37:44.761Z,52.67
2018-12-29T03:42:50.073Z,54.20
2018-12-29T03:47:56.052Z,48.90
2018-12-29T03:53:01.451Z,49.57
2018-12-29T03:58:07.437Z,50.20
2018-12-29T04:03:12.670Z,50.57
2018-12-29T04:08:18.803Z,49.17
2018-12-29T04:13:24.857Z,51.40
2018-12-29T04:18:32.885Z,53.53
2018-12-29T04:23:40.745Z,52.00
2018-12-29T04:28:46.701Z,51.03
2018-12-29T04:34:10.680Z,51.83
2018-12-29T04:39:16.827Z,50.03
2018-12-29T04:44:23.849Z,52.80
2018-12-29T04:49:30.098Z,51.03
2018-12-29T04:54:35.673Z,48.07
2018-12-29T04:59:41.999Z,53.50
2018-12-29T05:04:48.012Z,50.03
2018-12-29T05:09:54.427Z,48.40
2018-12-29T05:15:00.047Z,48.97
2018-12-29T05:20:05.937Z,46.57
2018-12-29T05:25:11.758Z,47.43
2018-12-29T05:30:18.042Z,50.00
2018-12-29T05:35:23.585Z,44.80
2018-12-29T05:40:29.962Z,46.30
2018-12-29T05:45:36.243Z,45.90
2018-12-29T05:50:42.408Z,48.63
2018-12-29T05:55:49.319Z,48.77
2018-12-29T06:00:55.105Z,47.97
2018-12-29T06:06:00.211Z,44.33
2018-12-29T06:11:06.027Z,49.33
2018-12-29T06:16:12.337Z,46.30
2018-12-29T06:21:18.770Z,44.40
2018-12-29T06:26:26.562Z,44.33
2018-12-29T06:31:32.196Z,44.40
2018-12-29T06:36:45.097Z,46.07
2018-12-29T06:41:51.405Z,47.07
2018-12-29T06:46:57.932Z,43.27
2018-12-29T06:52:04.157Z,47.70
2018-12-29T06:57:10.494Z,46.90
2018-12-29T07:02:17.768Z,47.27
2018-12-29T07:07:23.049Z,50.13
2018-12-29T07:12:29.148Z,42.50
2018-12-29T07:17:34.780Z,45.90
2018-12-29T07:22:40.582Z,43.70
2018-12-29T07:27:48.128Z,42.47
2018-12-29T07:32:55.170Z,45.33
2018-12-29T07:38:02.452Z,45.60
2018-12-29T07:43:08.301Z,44.17
2018-12-29T07:48:14.057Z,46.00
2018-12-29T07:53:24.024Z,45.20
2018-12-29T07:58:29.911Z,43.07
2018-12-29T08:03:35.762Z,46.93
2018-12-29T08:08:41.292Z,50.43
2018-12-29T08:14:04.178Z,44.90
2018-12-29T08:19:09.722Z,43.57
2018-12-29T08:24:15.635Z,44.83
2018-12-29T08:29:21.223Z,45.30
2018-12-29T08:34:26.516Z,49.20
2018-12-29T08:39:34.659Z,51.70
2018-12-29T08:44:41.559Z,50.87
2018-12-29T08:49:46.723Z,51.90
2018-12-29T08:55:26.045Z,49.10
2018-12-29T09:00:31.641Z,50.97
2018-12-29T09:05:38.357Z,45.77
2018-12-29T09:10:43.937Z,51.57
2018-12-29T09:15:49.065Z,51.50
2018-12-29T09:20:56.408Z,51.03
2018-12-29T09:26:11.435Z,49.07
2018-12-29T09:31:18.239Z,53.10
2018-12-29T09:36:24.563Z,53.80
2018-12-29T09:41:30.957Z,54.43
2018-12-29T09:46:37.229Z,56.77
2018-12-29T09:51:43.410Z,52.83
2018-12-29T09:56:49.402Z,52.43
2018-12-29T10:01:56.102Z,57.53
2018-12-29T10:07:03.278Z,55.63
2018-12-29T10:12:09.854Z,57.47
2018-12-29T10:17:16.154Z,49.33
2018-12-29T10:22:21.348Z,48.57
2018-12-29T10:27:30.431Z,47.53
2018-12-29T10:32:39.101Z,46.93
2018-12-29T10:37:44.833Z,44.87
2018-12-29T10:42:51.787Z,43.47
2018-12-29T10:47:58.683Z,41.30
2018-12-29T10:53:04.156Z,40.73
2018-12-29T10:58:10.144Z,47.00
2018-12-29T11:03:16.067Z,40.63
2018-12-29T11:08:22.030Z,43.93
2018-12-29T11:13:28.168Z,43.70
2018-12-29T11:18:35.013Z,40.90
2018-12-29T11:23:41.302Z,42.73
2018-12-29T11:28:48.181Z,42.07
2018-12-29T11:33:55.017Z,45.10
2018-12-29T11:39:02.706Z,45.27
2018-12-29T11:44:08.457Z,44.00
2018-12-29T11:49:18.223Z,43.73
2018-12-29T11:54:22.703Z,44.30
2018-12-29T11:59:29.673Z,44.40
2018-12-29T12:04:38.678Z,44.60
2018-12-29T12:09:45.343Z,45.27
2018-12-29T12:14:52.391Z,42.27
2018-12-29T12:19:59.687Z,45.57
2018-12-29T12:25:07.641Z,42.43
2018-12-29T12:30:14.249Z,42.33
2018-12-29T12:35:20.500Z,38.80
2018-12-29T12:40:26.397Z,36.77
2018-12-29T12:45:31.864Z,36.93
2018-12-29T12:50:37.990Z,36.80
2018-12-29T12:55:44.492Z,39.30
2018-12-29T13:00:50.718Z,37.70
2018-12-29T13:05:55.871Z,35.90
2018-12-29T13:11:02.182Z,36.40
2018-12-29T13:16:09.017Z,34.87
2018-12-29T13:21:16.557Z,34.87
2018-12-29T13:26:22.634Z,36.43
2018-12-29T13:31:27.690Z,36.90
2018-12-29T13:36:34.554Z,35.27
2018-12-29T13:41:41.967Z,34.57
2018-12-29T13:46:47.304Z,28.97
2018-12-29T13:51:53.303Z,31.17
2018-12-29T13:56:58.788Z,30.77
2018-12-29T14:02:06.193Z,30.63
2018-12-29T14:07:11.710Z,30.77
2018-12-29T14:12:16.948Z,31.17
2018-12-29T14:17:22.966Z,30.57
2018-12-29T14:22:29.393Z,30.20
2018-12-29T14:27:36.532Z,28.10
2018-12-29T14:32:42.848Z,28.40
2018-12-29T14:37:48.741Z,29.23
2018-12-29T14:42:55.118Z,29.53
2018-12-29T14:48:01.841Z,29.73
2018-12-29T14:53:07.303Z,29.87
2018-12-29T14:58:14.035Z,29.70
2018-12-29T15:03:20.813Z,25.23
2018-12-29T15:08:28.151Z,25.67
2018-12-29T15:13:35.298Z,23.70
2018-12-29T15:18:44.027Z,22.63
2018-12-29T15:23:50.256Z,21.47
2018-12-29T15:28:57.659Z,22.30
2018-12-29T15:34:03.506Z,22.00
2018-12-29T15:39:09.270Z,24.60
2018-12-29T15:44:17.333Z,23.97
2018-12-29T15:49:23.611Z,24.27
2018-12-29T15:54:29.164Z,19.97
2018-12-29T15:59:35.057Z,20.53
2018-12-29T16:04:41.261Z,21.87
2018-12-29T16:09:47.385Z,19.27
2018-12-29T16:14:52.959Z,18.07
2018-12-29T16:19:58.324Z,15.83
2018-12-29T16:25:04.598Z,16.17
2018-12-29T16:30:10.887Z,14.80
2018-12-29T16:35:17.606Z,14.03
2018-12-29T16:40:23.437Z,14.77
2018-12-29T16:45:31.625Z,15.10
2018-12-29T16:50:37.286Z,14.70
2018-12-29T16:55:43.481Z,14.33
2018-12-29T17:00:55.597Z,13.97
2018-12-29T17:06:02.441Z,15.00
2018-12-29T17:11:09.093Z,13.97
2018-12-29T17:16:15.883Z,14.07
2018-12-29T17:21:23.074Z,15.50
2018-12-29T17:26:29.102Z,15.43
2018-12-29T17:31:35.897Z,16.67
2018-12-29T17:36:42.912Z,20.93
2018-12-29T17:41:54.754Z,20.33
2018-12-29T17:47:01.126Z,20.17
2018-12-29T17:52:42.280Z,21.80
2018-12-29T17:57:48.665Z,20.20
2018-12-29T18:02:54.826Z,25.30
2018-12-29T18:08:18.290Z,23.03
2018-12-29T18:14:13.301Z,25.77
2018-12-29T18:19:19.879Z,27.67
2018-12-29T18:24:25.817Z,29.73
2018-12-29T18:29:34.896Z,26.37
2018-12-29T18:34:42.455Z,30.30
2018-12-29T18:39:48.008Z,34.27
2018-12-29T18:44:53.797Z,33.53
2018-12-29T18:50:02.388Z,34.97
2018-12-29T18:55:08.149Z,36.47
2018-12-29T19:00:26.797Z,39.63
2018-12-29T19:05:33.073Z,39.33
2018-12-29T19:10:38.516Z,44.50
2018-12-29T19:15:45.001Z,42.53
2018-12-29T19:20:52.085Z,42.67
2018-12-29T19:26:01.828Z,45.40
2018-12-29T19:31:08.800Z,38.43
2018-12-29T19:36:15.819Z,43.43
2018-12-29T19:41:22.251Z,37.07
2018-12-29T19:46:29.389Z,40.93
2018-12-29T19:51:36.547Z,37.70
2018-12-29T19:56:44.065Z,35.90
2018-12-29T20:01:50.718Z,35.67
2018-12-29T20:06:57.695Z,37.93
2018-12-29T20:12:14.677Z,31.10
2018-12-29T20:17:21.335Z,32.10
2018-12-29T20:22:29.071Z,33.50
2018-12-29T20:27:38.130Z,23.50
2018-12-29T20:32:45.802Z,25.97
2018-12-29T20:37:53.757Z,25.03
2018-12-29T20:43:03.286Z,23.73
2018-12-29T20:48:11.270Z,19.83
2018-12-29T20:53:18.872Z,15.27
2018-12-29T20:58:24.794Z,13.77
2018-12-29T21:03:33.246Z,13.93
2018-12-29T21:08:39.251Z,13.83
2018-12-29T21:13:46.923Z,15.20
2018-12-29T21:18:54.001Z,16.33
2018-12-29T21:24:02.242Z,12.00
2018-12-29T21:29:11.364Z,17.13
2018-12-29T21:34:18.204Z,14.27
2018-12-29T21:39:32.073Z,12.33
2018-12-29T21:44:37.887Z,10.27
2018-12-29T21:49:46.071Z,9.43
2018-12-29T21:54:51.697Z,13.03
2018-12-29T22:00:04.537Z,12.83
2018-12-29T22:05:11.890Z,11.07
2018-12-29T22:10:19.774Z,13.57
2018-12-29T22:15:26.105Z,11.67
2018-12-29T22:20:33.381Z,13.37
2018-12-29T22:25:47.865Z,13.03
2018-12-29T22:30:47.888Z,16.27
2018-12-29T22:35:53.666Z,13.17
2018-12-29T22:41:00.331Z,12.07
2018-12-29T22:46:05.535Z,16.83
2018-12-29T22:51:11.986Z,11.27
2018-12-29T22:56:18.967Z,13.00
2018-12-29T23:01:24.805Z,11.50
2018-12-29T23:06:30.733Z,15.00
2018-12-29T23:11:37.152Z,17.00
2018-12-29T23:16:43.818Z,14.37
2018-12-29T23:21:51.436Z,14.10
2018-12-29T23:26:58.221Z,21.77
2018-12-29T23:32:04.255Z,15.47
2018-12-29T23:37:10.451Z,17.90
2018-12-29T23:42:16.328Z,14.77
2018-12-29T23:47:22.477Z,16.77
2018-12-29T23:52:28.806Z,16.17
2018-12-29T23:57:36.444Z,14.63
